Time;durP1;ratioP1;P1;durP2;ratioP2;P2;SDS_P1;SDS_P2;PMS_P1;PMS_P2;Temp;Humidity;BMP_temperature;BMP_pressure;BME280_temperature;BME280_humidity;BME280_pressure;Samples;Min_cycle;Max_cycle;Signal;HPM_P1;HPM_P2
2022/12/12 00:01:51;;;;;;;53.57;22.43;;;0.70;99.90;;;;;;5090243;28;20394;-74
2022/12/12 00:04:17;;;;;;;53.77;22.50;;;0.70;99.90;;;;;;5087232;28;20435;-74
2022/12/12 00:06:43;;;;;;;55.55;23.35;;;0.70;99.90;;;;;;5089614;28;20758;-74
2022/12/12 00:09:09;;;;;;;57.47;23.35;;;0.70;99.90;;;;;;5089845;28;20402;-74
2022/12/12 00:11:35;;;;;;;55.27;22.50;;;0.70;99.90;;;;;;5078563;28;20486;-74
2022/12/12 00:14:01;;;;;;;56.70;23.33;;;0.70;99.90;;;;;;5083433;28;20407;-74
2022/12/12 00:16:27;;;;;;;58.33;23.70;;;0.60;99.90;;;;;;5089801;28;20410;-74
2022/12/12 00:18:53;;;;;;;51.20;21.90;;;0.60;99.90;;;;;;5089525;28;20464;-74
2022/12/12 00:21:24;;;;;;;52.15;22.50;;;0.60;99.90;;;;;;5080311;28;20412;-74
2022/12/12 00:23:50;;;;;;;51.83;23.00;;;0.60;99.90;;;;;;5077424;28;20447;-74
2022/12/12 00:26:22;;;;;;;55.00;23.00;;;0.60;99.90;;;;;;5083141;28;20406;-74
2022/12/12 00:28:48;;;;;;;58.53;24.05;;;0.70;99.90;;;;;;5068520;28;20433;-74
2022/12/12 00:31:14;;;;;;;53.15;23.33;;;0.60;99.90;;;;;;5079163;28;20440;-74
2022/12/12 00:33:40;;;;;;;54.00;22.92;;;0.60;99.90;;;;;;5067529;28;20492;-74
2022/12/12 00:36:06;;;;;;;53.03;23.20;;;0.70;99.90;;;;;;5083047;28;20442;-74
2022/12/12 00:38:32;;;;;;;55.92;22.95;;;0.60;99.90;;;;;;5084211;28;20408;-74
2022/12/12 00:40:59;;;;;;;52.50;22.58;;;0.60;99.90;;;;;;5089697;28;20880;-74
2022/12/12 00:43:25;;;;;;;50.70;22.50;;;0.70;99.90;;;;;;5089746;28;20493;-74
2022/12/12 00:45:51;;;;;;;52.13;22.98;;;0.60;99.90;;;;;;5071070;28;20405;-74
2022/12/12 00:48:17;;;;;;;56.40;24.30;;;0.70;99.90;;;;;;5083886;28;20411;-74
2022/12/12 00:50:43;;;;;;;54.70;22.90;;;0.70;99.90;;;;;;5087880;28;20450;-74
2022/12/12 00:53:09;;;;;;;53.97;23.08;;;0.70;99.90;;;;;;5088183;28;20464;-74
2022/12/12 00:55:35;;;;;;;54.10;23.20;;;0.70;99.90;;;;;;5084754;28;20412;-74
2022/12/12 00:58:01;;;;;;;52.60;23.27;;;0.70;99.90;;;;;;5088570;28;20463;-74
2022/12/12 01:00:27;;;;;;;53.47;23.65;;;0.70;99.90;;;;;;5089099;28;20394;-74
2022/12/12 01:02:55;;;;;;;54.45;22.52;;;0.70;99.90;;;;;;5067621;28;20529;-74
2022/12/12 01:05:21;;;;;;;53.30;23.23;;;0.70;99.90;;;;;;5086537;28;20840;-74
2022/12/12 01:07:47;;;;;;;57.40;23.55;;;0.70;99.90;;;;;;5083385;28;20535;-74
2022/12/12 01:10:13;;;;;;;47.00;21.97;;;0.70;99.90;;;;;;5085589;28;20803;-74
2022/12/12 01:12:38;;;;;;;48.30;22.33;;;0.70;99.90;;;;;;5085601;28;20427;-74
2022/12/12 01:15:06;;;;;;;48.77;21.77;;;0.70;99.90;;;;;;5088421;28;20440;-74
2022/12/12 01:17:36;;;;;;;49.88;22.55;;;0.70;99.90;;;;;;5064737;28;20424;-74
2022/12/12 01:20:07;;;;;;;51.92;22.58;;;0.70;99.90;;;;;;5077745;28;20420;-74
2022/12/12 01:22:33;;;;;;;49.08;23.42;;;0.70;99.90;;;;;;5071463;28;20441;-74
2022/12/12 01:24:59;;;;;;;47.15;21.30;;;0.70;99.90;;;;;;5082777;28;20770;-74
2022/12/12 01:27:26;;;;;;;47.00;21.47;;;0.70;99.90;;;;;;5079557;28;20408;-74
2022/12/12 01:29:54;;;;;;;46.10;21.63;;;0.70;99.90;;;;;;5082700;28;20422;-74
2022/12/12 01:32:20;;;;;;;48.60;22.47;;;0.70;99.90;;;;;;5088703;28;20764;-73
2022/12/12 01:34:46;;;;;;;42.93;21.40;;;0.70;99.90;;;;;;5087910;28;20406;-74
2022/12/12 01:37:12;;;;;;;47.33;21.45;;;0.70;99.90;;;;;;5088963;28;20810;-74
2022/12/12 01:39:37;;;;;;;48.47;22.48;;;0.70;99.90;;;;;;5086522;28;20399;-74
2022/12/12 01:42:03;;;;;;;50.70;22.00;;;0.70;99.90;;;;;;5069299;28;20486;-74
2022/12/12 01:44:47;;;;;;;44.72;21.20;;;0.70;99.90;;;;;;5082945;28;20398;-74
2022/12/12 01:47:15;;;;;;;46.80;21.55;;;0.70;99.90;;;;;;5087469;28;20925;-74
2022/12/12 01:49:44;;;;;;;48.95;23.48;;;0.70;99.90;;;;;;5088014;28;20920;-74
2022/12/12 01:52:14;;;;;;;47.23;22.13;;;0.70;99.90;;;;;;5087634;28;20765;-74
2022/12/12 01:54:45;;;;;;;45.03;21.67;;;0.70;99.90;;;;;;5088042;28;20398;-74
2022/12/12 01:57:16;;;;;;;46.40;22.17;;;0.70;99.90;;;;;;5088607;28;20405;-74
2022/12/12 01:59:44;;;;;;;44.73;22.00;;;0.70;99.90;;;;;;5071000;28;20415;-74
2022/12/12 02:02:10;;;;;;;46.03;22.25;;;0.70;99.90;;;;;;5077544;28;20458;-74
2022/12/12 02:04:36;;;;;;;47.08;22.33;;;0.70;99.90;;;;;;5074831;28;20437;-74
2022/12/12 02:07:02;;;;;;;48.70;22.23;;;0.70;99.90;;;;;;5079037;28;20849;-74
2022/12/12 02:09:28;;;;;;;47.63;22.27;;;0.70;99.90;;;;;;5086825;28;20488;-74
2022/12/12 02:11:55;;;;;;;49.90;21.83;;;0.70;99.90;;;;;;5088164;28;20485;-74
2022/12/12 02:14:26;;;;;;;48.55;21.98;;;0.70;99.90;;;;;;5087967;28;20408;-74
2022/12/12 02:17:00;;;;;;;45.87;22.50;;;0.70;99.90;;;;;;5087780;28;20760;-74
2022/12/12 02:19:52;;;;;;;48.53;22.02;;;0.70;99.90;;;;;;5081546;28;20415;-74
2022/12/12 02:22:29;;;;;;;45.67;22.40;;;0.70;99.90;;;;;;5082780;28;20405;-74
2022/12/12 02:25:30;;;;;;;47.67;22.58;;;0.70;99.90;;;;;;5087753;28;20402;-74
2022/12/12 02:28:22;;;;;;;49.25;22.23;;;0.70;99.90;;;;;;5075240;28;20500;-74
2022/12/12 02:31:08;;;;;;;43.78;22.50;;;0.70;99.90;;;;;;5086495;28;20949;-74
2022/12/12 02:33:41;;;;;;;46.83;22.08;;;0.70;99.90;;;;;;5088166;28;20430;-74
2022/12/12 02:36:15;;;;;;;47.00;22.07;;;0.70;99.90;;;;;;5075853;28;20489;-74
2022/12/12 02:38:52;;;;;;;47.55;22.60;;;0.70;99.90;;;;;;5087672;28;20411;-74
2022/12/12 02:41:36;;;;;;;48.25;22.67;;;0.70;99.90;;;;;;5083479;28;20798;-73
2022/12/12 02:44:28;;;;;;;46.78;21.67;;;0.70;99.90;;;;;;5077974;28;20502;-74
2022/12/12 02:47:08;;;;;;;48.50;21.98;;;0.60;99.90;;;;;;5077066;28;20410;-74
2022/12/12 02:49:56;;;;;;;45.92;21.67;;;0.70;99.90;;;;;;5086065;28;20406;-74
2022/12/12 02:52:22;;;;;;;45.80;22.10;;;0.60;99.90;;;;;;5086464;28;20449;-74
2022/12/12 02:54:48;;;;;;;47.40;22.23;;;0.60;99.90;;;;;;5086049;28;20467;-74
2022/12/12 02:57:25;;;;;;;45.65;23.15;;;0.60;99.90;;;;;;5086099;28;20901;-74
2022/12/12 03:00:03;;;;;;;48.00;22.92;;;0.60;99.90;;;;;;5076184;28;20418;-74
2022/12/12 03:07:45;;;;;;;45.85;21.77;;;0.60;99.90;;;;;;5076762;28;20477;-74
2022/12/12 03:09:10;;;;;;;42.95;21.67;;;0.60;99.90;;;;;;5085002;28;20414;-74
2022/12/12 03:12:00;;;;;;;42.28;21.10;;;0.60;99.90;;;;;;5085199;28;20547;-74
2022/12/12 03:14:41;;;;;;;44.55;22.17;;;0.60;99.90;;;;;;5086207;28;20418;-74
2022/12/12 03:17:14;;;;;;;45.65;22.23;;;0.60;99.90;;;;;;5087332;28;20445;-74
2022/12/12 03:19:42;;;;;;;45.03;22.55;;;0.60;99.90;;;;;;5085854;28;20417;-74
2022/12/12 03:22:55;;;;;;;44.72;22.48;;;0.60;99.90;;;;;;5086904;28;20481;-74
2022/12/12 03:25:36;;;;;;;46.05;22.52;;;0.60;99.90;;;;;;5005096;28;20449;-74
2022/12/12 03:28:05;;;;;;;43.55;21.98;;;0.60;99.90;;;;;;5075051;28;20422;-74
2022/12/12 03:30:36;;;;;;;46.58;22.40;;;0.70;99.90;;;;;;5087552;28;20433;-74
2022/12/12 03:33:18;;;;;;;43.88;21.75;;;0.60;99.90;;;;;;5072195;28;20986;-74
2022/12/12 03:35:55;;;;;;;45.92;21.83;;;0.60;99.90;;;;;;5086256;28;20413;-74
2022/12/12 03:38:25;;;;;;;45.30;22.20;;;0.60;99.90;;;;;;5078731;28;20449;-74
2022/12/12 03:40:57;;;;;;;42.58;21.25;;;0.60;99.90;;;;;;5083352;28;20398;-74
2022/12/12 03:43:30;;;;;;;42.78;21.25;;;0.60;99.90;;;;;;5073421;28;20413;-74
2022/12/12 03:46:43;;;;;;;43.50;21.45;;;0.60;99.90;;;;;;5086838;28;20447;-74
2022/12/12 03:49:24;;;;;;;43.05;22.10;;;0.70;99.90;;;;;;4988461;28;21193;-74
2022/12/12 03:51:58;;;;;;;43.10;21.55;;;0.60;99.90;;;;;;5067057;28;20414;-74
2022/12/12 03:54:40;;;;;;;43.07;21.97;;;0.60;99.90;;;;;;5090651;28;20791;-74
2022/12/12 03:57:13;;;;;;;43.05;22.08;;;0.60;99.90;;;;;;5090646;28;20410;-74
2022/12/12 03:59:53;;;;;;;43.38;22.02;;;0.60;99.90;;;;;;5086475;28;20415;-74
2022/12/12 04:02:40;;;;;;;42.17;21.50;;;0.60;99.90;;;;;;5071335;28;20944;-74
2022/12/12 04:05:18;;;;;;;41.78;20.88;;;0.60;99.90;;;;;;5074155;28;20852;-74
2022/12/12 04:08:21;;;;;;;42.00;21.83;;;0.60;99.90;;;;;;5082375;28;20469;-74
2022/12/12 04:13:58;;;;;;;41.33;20.88;;;0.70;99.90;;;;;;5078113;28;20455;-74
2022/12/12 04:16:31;;;;;;;41.83;20.85;;;0.60;99.90;;;;;;5077971;28;20414;-74
2022/12/12 04:18:57;;;;;;;41.78;21.55;;;0.60;99.90;;;;;;5089912;28;20673;-74
2022/12/12 04:24:56;;;;;;;39.42;21.00;;;0.70;99.90;;;;;;5089142;28;20421;-74
2022/12/12 04:27:29;;;;;;;40.72;21.63;;;0.60;99.90;;;;;;5090082;28;20402;-74
2022/12/12 04:30:11;;;;;;;40.97;21.45;;;0.70;99.90;;;;;;5089684;28;20987;-74
2022/12/12 04:32:41;;;;;;;41.07;20.77;;;0.60;99.90;;;;;;5070405;28;20461;-74
2022/12/12 04:35:19;;;;;;;40.30;21.42;;;0.70;99.90;;;;;;5083510;28;20422;-74
2022/12/12 04:37:59;;;;;;;42.42;21.52;;;0.60;99.90;;;;;;5078920;28;20418;-74
2022/12/12 04:40:31;;;;;;;40.53;21.45;;;0.60;99.90;;;;;;5089268;28;20531;-74
2022/12/12 04:43:17;;;;;;;41.33;21.63;;;0.60;99.90;;;;;;5088234;28;20410;-74
2022/12/12 04:45:51;;;;;;;42.03;21.08;;;0.60;99.90;;;;;;5079987;28;20936;-74
2022/12/12 04:48:24;;;;;;;40.30;20.58;;;0.60;99.90;;;;;;5089148;28;20486;-74
2022/12/12 04:50:52;;;;;;;42.00;21.55;;;0.60;99.90;;;;;;5088625;28;20422;-74
2022/12/12 04:53:24;;;;;;;41.03;21.30;;;0.60;99.90;;;;;;5089755;28;20746;-74
2022/12/12 04:55:55;;;;;;;42.07;21.77;;;0.50;99.90;;;;;;5089756;28;20440;-74
2022/12/12 04:58:22;;;;;;;39.75;20.80;;;0.60;99.90;;;;;;5088092;28;20912;-74
2022/12/12 05:01:07;;;;;;;42.53;21.52;;;0.50;99.90;;;;;;5089468;28;20758;-74
2022/12/12 05:03:45;;;;;;;41.60;22.05;;;0.60;99.90;;;;;;5088254;28;20434;-74
2022/12/12 05:06:15;;;;;;;39.28;20.83;;;0.60;99.90;;;;;;5088104;28;20447;-74
2022/12/12 05:08:44;;;;;;;41.53;21.17;;;0.60;99.90;;;;;;5089871;28;20432;-74
2022/12/12 05:11:11;;;;;;;40.88;20.98;;;0.50;99.90;;;;;;5088924;28;20985;-74
2022/12/12 05:13:39;;;;;;;41.53;21.83;;;0.50;99.90;;;;;;5088980;28;20936;-74
2022/12/12 05:16:21;;;;;;;38.40;20.53;;;0.50;99.90;;;;;;5083857;28;21151;-74
2022/12/12 05:18:47;;;;;;;39.30;21.02;;;0.50;99.90;;;;;;5081468;28;20475;-74
2022/12/12 05:21:14;;;;;;;40.22;20.67;;;0.50;99.90;;;;;;5089687;28;20490;-74
2022/12/12 05:23:40;;;;;;;43.55;21.58;;;0.50;99.90;;;;;;5088921;28;20426;-74
2022/12/12 05:26:23;;;;;;;41.45;21.05;;;0.40;99.90;;;;;;5089313;28;20460;-74
2022/12/12 05:28:49;;;;;;;44.65;22.02;;;0.40;99.90;;;;;;5075264;28;20952;-74
2022/12/12 05:31:15;;;;;;;39.88;21.02;;;0.40;99.90;;;;;;5089024;28;20480;-74
2022/12/12 05:33:41;;;;;;;41.85;20.85;;;0.30;99.90;;;;;;5088653;28;20448;-74
2022/12/12 05:36:07;;;;;;;41.53;20.67;;;0.30;99.90;;;;;;5079466;28;20846;-73
2022/12/12 05:38:34;;;;;;;44.67;21.87;;;0.30;99.90;;;;;;5084124;28;20517;-74
2022/12/12 05:40:59;;;;;;;44.77;22.17;;;0.20;99.90;;;;;;5088306;28;20398;-74
2022/12/12 05:43:25;;;;;;;40.63;21.70;;;0.20;99.90;;;;;;5084056;28;20454;-74
2022/12/12 05:45:51;;;;;;;44.42;22.23;;;0.20;99.90;;;;;;5078567;28;20389;-74
2022/12/12 05:48:16;;;;;;;40.60;21.42;;;0.20;99.90;;;;;;5088548;28;20492;-74
2022/12/12 05:50:42;;;;;;;43.83;22.60;;;0.10;99.90;;;;;;5083904;28;20440;-74
2022/12/12 05:53:08;;;;;;;43.05;22.25;;;0.10;99.90;;;;;;5072253;28;20444;-74
2022/12/12 05:55:34;;;;;;;40.67;21.63;;;0.10;99.90;;;;;;5087265;28;20398;-74
2022/12/12 05:58:00;;;;;;;42.47;21.73;;;0.10;99.90;;;;;;5073987;28;20825;-74
2022/12/12 06:00:25;;;;;;;45.05;22.02;;;0.00;99.90;;;;;;5088033;28;20485;-74
2022/12/12 06:02:51;;;;;;;46.40;22.57;;;0.00;99.90;;;;;;5087845;28;20402;-74
2022/12/12 06:05:17;;;;;;;47.78;22.58;;;-0.10;99.90;;;;;;5087291;28;21104;-74
2022/12/12 06:07:42;;;;;;;47.97;22.60;;;-0.10;99.90;;;;;;5088159;28;20439;-74
2022/12/12 06:10:08;;;;;;;47.77;23.13;;;-0.10;99.90;;;;;;5088075;28;20430;-74
2022/12/12 06:12:34;;;;;;;49.33;23.75;;;-0.10;99.90;;;;;;5085305;28;20398;-74
2022/12/12 06:14:59;;;;;;;45.37;22.40;;;-0.10;99.90;;;;;;5078273;28;20398;-74
2022/12/12 06:17:25;;;;;;;48.33;23.30;;;-0.10;99.90;;;;;;5087511;28;20765;-74
2022/12/12 06:19:51;;;;;;;51.30;23.90;;;-0.20;99.90;;;;;;5086341;28;20406;-74
2022/12/12 06:22:17;;;;;;;48.10;22.42;;;-0.20;99.90;;;;;;5086667;28;20485;-74
2022/12/12 06:24:43;;;;;;;51.08;23.08;;;-0.20;99.90;;;;;;5087578;28;20481;-74
2022/12/12 06:27:08;;;;;;;52.73;23.07;;;-0.20;99.90;;;;;;5085375;28;20448;-74
2022/12/12 06:29:34;;;;;;;53.43;24.20;;;-0.30;99.90;;;;;;5087349;28;20897;-74
2022/12/12 06:31:59;;;;;;;48.20;22.10;;;-0.30;99.90;;;;;;5086711;28;20893;-74
2022/12/12 06:34:25;;;;;;;49.43;23.10;;;-0.30;99.90;;;;;;5082724;28;20503;-74
2022/12/12 06:36:54;;;;;;;49.00;22.50;;;-0.30;99.90;;;;;;5072833;28;20916;-74
2022/12/12 06:39:19;;;;;;;52.63;24.48;;;-0.40;99.90;;;;;;5084777;28;20406;-74
2022/12/12 06:41:45;;;;;;;52.77;23.30;;;-0.40;99.90;;;;;;5070147;28;20430;-74
2022/12/12 06:44:10;;;;;;;50.95;24.92;;;-0.40;99.90;;;;;;5068308;28;20423;-74
2022/12/12 06:46:36;;;;;;;52.57;23.93;;;-0.40;99.90;;;;;;5076760;28;20438;-73
2022/12/12 06:49:08;;;;;;;54.17;22.73;;;-0.40;99.90;;;;;;5083456;28;20417;-74
2022/12/12 06:51:36;;;;;;;51.92;24.60;;;-0.50;99.90;;;;;;5086072;28;20473;-73
2022/12/12 06:54:02;;;;;;;54.33;24.30;;;-0.40;99.90;;;;;;5079919;28;20510;-74
2022/12/12 06:56:28;;;;;;;53.13;24.65;;;-0.50;99.90;;;;;;5083639;28;20477;-74
2022/12/12 06:58:54;;;;;;;55.05;25.15;;;-0.40;99.90;;;;;;5083204;28;20876;-74
2022/12/12 07:01:21;;;;;;;49.72;23.80;;;-0.40;99.90;;;;;;5055865;28;21008;-74
2022/12/12 07:03:49;;;;;;;50.78;25.23;;;-0.40;99.90;;;;;;5073471;28;20438;-74
2022/12/12 07:06:16;;;;;;;51.78;23.52;;;-0.40;99.90;;;;;;5081443;28;20503;-74
2022/12/12 07:08:42;;;;;;;52.40;23.30;;;-0.40;99.90;;;;;;5080769;28;20467;-74
2022/12/12 07:11:11;;;;;;;51.63;24.45;;;-0.40;99.90;;;;;;5083699;28;20428;-74
2022/12/12 07:13:37;;;;;;;52.00;24.50;;;-0.40;99.90;;;;;;5094104;28;20406;-74
2022/12/12 07:16:03;;;;;;;56.30;24.90;;;-0.40;99.90;;;;;;5081364;28;20406;-74
2022/12/12 07:18:29;;;;;;;55.03;24.77;;;-0.40;99.90;;;;;;5087434;28;21101;-74
2022/12/12 07:20:55;;;;;;;46.90;23.73;;;-0.40;99.90;;;;;;5086904;28;20418;-74
2022/12/12 07:23:20;;;;;;;50.67;23.52;;;-0.40;99.90;;;;;;5086469;28;20397;-74
2022/12/12 07:25:46;;;;;;;50.17;24.07;;;-0.40;99.90;;;;;;5086919;28;20440;-74
2022/12/12 07:28:13;;;;;;;48.73;23.83;;;-0.40;99.90;;;;;;5080650;28;20814;-74
2022/12/12 07:30:44;;;;;;;48.05;23.33;;;-0.40;99.90;;;;;;5088447;28;20500;-74
2022/12/12 07:33:11;;;;;;;45.80;22.20;;;-0.40;99.90;;;;;;5086515;28;20417;-74
2022/12/12 07:35:36;;;;;;;47.05;23.00;;;-0.40;99.90;;;;;;5091458;28;20394;-74
2022/12/12 07:38:03;;;;;;;47.10;22.80;;;-0.50;99.90;;;;;;5086092;28;20772;-74
2022/12/12 07:40:29;;;;;;;51.45;23.75;;;-0.50;99.90;;;;;;5084465;28;20437;-74
2022/12/12 07:42:55;;;;;;;51.72;23.63;;;-0.50;99.90;;;;;;5072068;28;20423;-74
2022/12/12 07:45:20;;;;;;;46.88;23.02;;;-0.50;99.90;;;;;;5069768;28;20744;-74
2022/12/12 07:47:47;;;;;;;45.13;22.13;;;-0.50;99.90;;;;;;5087338;28;20402;-74
2022/12/12 07:50:13;;;;;;;45.78;22.90;;;-0.50;99.90;;;;;;5080265;28;20420;-74
2022/12/12 07:52:38;;;;;;;46.53;22.42;;;-0.60;99.90;;;;;;5097951;28;20480;-74
2022/12/12 07:55:05;;;;;;;47.53;22.53;;;-0.60;99.90;;;;;;5089643;28;20398;-74
2022/12/12 07:57:31;;;;;;;47.80;22.42;;;-0.60;99.90;;;;;;5090419;28;20401;-74
2022/12/12 07:59:56;;;;;;;45.50;22.05;;;-0.60;99.90;;;;;;5089688;28;21124;-74
2022/12/12 08:02:23;;;;;;;42.95;22.15;;;-0.60;99.90;;;;;;5081410;28;20821;-74
2022/12/12 08:04:48;;;;;;;45.70;22.30;;;-0.60;99.90;;;;;;5081783;28;21146;-74
2022/12/12 08:07:14;;;;;;;42.17;21.43;;;-0.60;99.90;;;;;;5083912;28;20492;-74
2022/12/12 08:09:39;;;;;;;47.20;22.10;;;-0.60;99.90;;;;;;5090258;28;20497;-74
2022/12/12 08:12:05;;;;;;;45.85;21.88;;;-0.60;99.90;;;;;;5084459;28;20390;-74
2022/12/12 08:14:31;;;;;;;47.30;22.77;;;-0.50;99.90;;;;;;5082791;28;20435;-74
2022/12/12 08:16:57;;;;;;;45.40;22.13;;;-0.50;99.90;;;;;;5082544;28;21520;-74
2022/12/12 08:19:23;;;;;;;44.60;22.80;;;-0.50;99.90;;;;;;5074895;28;20403;-74
2022/12/12 08:21:49;;;;;;;44.83;23.23;;;-0.50;99.90;;;;;;5094897;28;20398;-74
2022/12/12 08:24:15;;;;;;;52.38;24.27;;;-0.50;99.90;;;;;;5109033;28;20416;-74
2022/12/12 08:26:42;;;;;;;47.30;24.03;;;-0.40;99.90;;;;;;5089002;28;21045;-74
2022/12/12 08:29:08;;;;;;;51.00;24.33;;;-0.40;99.90;;;;;;5088114;28;20411;-74
2022/12/12 08:31:34;;;;;;;46.03;23.02;;;-0.40;99.90;;;;;;5085168;28;20487;-74
2022/12/12 08:34:00;;;;;;;51.35;23.90;;;-0.30;99.90;;;;;;5084554;28;20394;-74
2022/12/12 08:36:29;;;;;;;49.77;23.83;;;-0.30;99.90;;;;;;5089096;28;20409;-74
2022/12/12 08:38:55;;;;;;;56.15;26.75;;;-0.20;99.90;;;;;;5080067;28;20447;-74
2022/12/12 08:41:22;;;;;;;56.33;27.05;;;-0.20;99.90;;;;;;5091655;28;20476;-74
2022/12/12 08:43:48;;;;;;;52.85;26.42;;;-0.20;99.90;;;;;;5080047;28;20409;-74
2022/12/12 08:46:15;;;;;;;53.67;25.37;;;-0.10;99.90;;;;;;5090072;28;20524;-74
2022/12/12 08:48:41;;;;;;;48.42;24.15;;;-0.10;99.90;;;;;;5082822;28;20561;-74
2022/12/12 08:51:07;;;;;;;49.97;24.97;;;-0.10;99.90;;;;;;5087336;28;20581;-74
2022/12/12 08:53:33;;;;;;;48.38;24.83;;;0.00;99.90;;;;;;5072090;28;20394;-74
2022/12/12 08:55:59;;;;;;;49.97;25.42;;;0.00;99.90;;;;;;5087972;28;20438;-74
2022/12/12 08:58:24;;;;;;;51.40;25.38;;;0.10;99.90;;;;;;5089524;28;20398;-74
2022/12/12 09:00:50;;;;;;;51.10;24.55;;;0.10;99.90;;;;;;5080093;28;20447;-74
2022/12/12 09:03:16;;;;;;;52.60;26.37;;;0.10;99.90;;;;;;5085185;28;20545;-74
2022/12/12 09:05:45;;;;;;;50.47;25.70;;;0.20;99.90;;;;;;5080267;28;20995;-74
2022/12/12 09:08:12;;;;;;;50.90;26.13;;;0.20;99.90;;;;;;5078429;28;21328;-74
2022/12/12 09:10:39;;;;;;;49.07;25.47;;;0.20;99.90;;;;;;5074036;28;20526;-74
2022/12/12 09:13:06;;;;;;;48.97;24.83;;;0.30;99.90;;;;;;5082025;28;20815;-74
2022/12/12 09:15:36;;;;;;;47.70;24.70;;;0.30;99.90;;;;;;5077134;28;20402;-74
2022/12/12 09:18:02;;;;;;;48.10;23.73;;;0.30;99.90;;;;;;5075507;28;20420;-74
2022/12/12 09:20:28;;;;;;;49.20;24.47;;;0.40;99.90;;;;;;5070768;28;20419;-74
2022/12/12 09:22:54;;;;;;;47.20;24.93;;;0.40;99.90;;;;;;5073616;28;20398;-74
2022/12/12 09:25:20;;;;;;;45.78;24.75;;;0.50;99.90;;;;;;5075842;28;20400;-74
2022/12/12 09:27:46;;;;;;;49.92;25.27;;;0.50;99.90;;;;;;5083860;28;20413;-74
2022/12/12 09:30:12;;;;;;;47.72;24.25;;;0.50;99.90;;;;;;5060498;28;20975;-74
2022/12/12 09:32:38;;;;;;;44.15;23.90;;;0.60;99.90;;;;;;5085102;28;20490;-74
2022/12/12 09:35:04;;;;;;;43.03;23.70;;;0.60;99.90;;;;;;5077598;28;20402;-74
2022/12/12 09:37:30;;;;;;;41.57;22.10;;;0.60;99.90;;;;;;5077846;28;20404;-74
2022/12/12 09:39:56;;;;;;;40.57;21.93;;;0.60;99.90;;;;;;5074181;28;20408;-74
2022/12/12 09:42:30;;;;;;;39.78;22.20;;;0.70;99.90;;;;;;5085171;28;20453;-74
2022/12/12 09:45:01;;;;;;;35.55;20.88;;;0.70;99.90;;;;;;5088194;28;20893;-74
2022/12/12 09:47:38;;;;;;;33.15;19.42;;;0.80;99.90;;;;;;5090730;28;20490;-71
2022/12/12 09:50:38;;;;;;;31.52;18.45;;;0.80;99.90;;;;;;5086684;28;20426;-74
2022/12/12 09:53:09;;;;;;;31.42;18.73;;;0.90;99.90;;;;;;5066638;28;20410;-74
2022/12/12 09:55:45;;;;;;;30.45;18.55;;;0.90;99.90;;;;;;5087688;28;20394;-74
2022/12/12 09:58:27;;;;;;;29.23;18.13;;;1.00;99.90;;;;;;5089952;28;20402;-74
2022/12/12 10:01:17;;;;;;;28.93;17.50;;;1.10;99.90;;;;;;5076993;28;20402;-74
2022/12/12 10:04:07;;;;;;;24.65;15.75;;;1.10;99.90;;;;;;5085660;28;20414;-74
2022/12/12 10:06:51;;;;;;;25.25;16.00;;;1.20;99.90;;;;;;5087959;28;20475;-74
2022/12/12 10:09:33;;;;;;;27.25;16.90;;;1.20;99.90;;;;;;5075076;28;20410;-74
2022/12/12 10:12:02;;;;;;;24.75;15.85;;;1.20;99.90;;;;;;5086621;28;20414;-74
2022/12/12 10:15:03;;;;;;;24.60;15.50;;;1.30;99.90;;;;;;5088693;28;20402;-74
2022/12/12 10:17:36;;;;;;;23.92;15.13;;;1.40;99.90;;;;;;5046316;28;20950;-74
2022/12/12 10:20:07;;;;;;;22.60;14.48;;;1.40;99.90;;;;;;5090767;28;20849;-74
2022/12/12 10:22:46;;;;;;;23.40;15.00;;;1.40;99.90;;;;;;5084165;28;20939;-74
2022/12/12 10:25:22;;;;;;;22.52;14.82;;;1.50;99.90;;;;;;5086433;28;20443;-74
2022/12/12 10:27:52;;;;;;;25.20;15.10;;;1.50;99.90;;;;;;5080603;28;20451;-74
2022/12/12 10:30:19;;;;;;;23.02;14.95;;;1.60;99.90;;;;;;5086497;28;20410;-74
2022/12/12 10:32:56;;;;;;;23.05;14.70;;;1.70;99.90;;;;;;5084138;28;20417;-74
2022/12/12 10:35:38;;;;;;;20.60;13.77;;;1.70;99.90;;;;;;5084818;28;21131;-74
2022/12/12 10:38:03;;;;;;;21.30;13.52;;;1.90;99.90;;;;;;5087422;28;20419;-74
2022/12/12 10:40:38;;;;;;;18.83;13.02;;;2.00;99.90;;;;;;5087669;28;20452;-74
2022/12/12 10:43:13;;;;;;;21.35;13.57;;;2.00;99.90;;;;;;5086694;28;20413;-74
2022/12/12 10:45:59;;;;;;;21.40;12.95;;;2.00;99.90;;;;;;5088032;28;20417;-74
2022/12/12 10:48:28;;;;;;;20.27;13.35;;;2.00;99.90;;;;;;5085547;28;20406;-74
2022/12/12 10:51:00;;;;;;;24.40;15.13;;;2.00;99.90;;;;;;5086032;28;20437;-74
2022/12/12 10:53:27;;;;;;;21.13;13.80;;;2.00;99.90;;;;;;5080260;28;20543;-74
2022/12/12 10:56:05;;;;;;;20.92;13.68;;;2.00;99.90;;;;;;5083967;28;20891;-74
2022/12/12 10:58:50;;;;;;;18.80;12.48;;;2.00;99.90;;;;;;5080146;28;20413;-74
2022/12/12 11:01:20;;;;;;;22.90;15.18;;;2.10;99.90;;;;;;5082591;28;20489;-74
2022/12/12 11:03:48;;;;;;;23.95;15.15;;;2.00;99.90;;;;;;5086438;28;20402;-74
2022/12/12 11:06:46;;;;;;;24.70;15.38;;;2.00;99.90;;;;;;5088069;28;20415;-74
2022/12/12 11:09:22;;;;;;;23.90;15.70;;;2.10;99.90;;;;;;5087580;28;20479;-74
2022/12/12 11:12:03;;;;;;;24.63;16.23;;;2.10;99.90;;;;;;5084716;28;20499;-74
2022/12/12 11:14:34;;;;;;;23.88;15.05;;;2.10;99.90;;;;;;5084310;28;20407;-74
2022/12/12 11:17:00;;;;;;;22.40;14.55;;;2.20;99.90;;;;;;5084145;28;20413;-74
2022/12/12 11:19:34;;;;;;;21.50;14.90;;;2.20;99.90;;;;;;5091883;28;20401;-74
2022/12/12 11:22:02;;;;;;;29.38;18.17;;;2.30;99.90;;;;;;5083928;28;20769;-73
2022/12/12 11:24:31;;;;;;;29.30;19.50;;;2.50;99.90;;;;;;5078957;28;20932;-74
2022/12/12 11:27:03;;;;;;;30.38;19.42;;;2.70;99.90;;;;;;5084131;28;20419;-74
2022/12/12 11:29:48;;;;;;;32.78;19.90;;;2.70;99.90;;;;;;5096532;28;20402;-74
2022/12/12 11:32:31;;;;;;;30.97;19.77;;;2.70;99.90;;;;;;5077642;28;20409;-75
2022/12/12 11:35:00;;;;;;;33.15;20.92;;;2.70;99.90;;;;;;5083308;28;20410;-74
2022/12/12 11:37:32;;;;;;;29.48;19.38;;;2.70;99.90;;;;;;5090822;28;20437;-74
2022/12/12 11:39:58;;;;;;;30.90;20.57;;;2.70;99.90;;;;;;5095646;28;20414;-74
2022/12/12 11:42:28;;;;;;;32.93;21.27;;;2.70;99.90;;;;;;5091027;28;20408;-74
2022/12/12 11:45:20;;;;;;;33.50;20.80;;;2.70;99.90;;;;;;5090099;28;20488;-74
2022/12/12 11:47:47;;;;;;;32.38;19.83;;;2.60;99.90;;;;;;5086704;28;20409;-74
2022/12/12 11:50:17;;;;;;;33.78;21.65;;;2.60;99.90;;;;;;5081455;28;20430;-74
2022/12/12 11:52:43;;;;;;;33.08;21.10;;;2.60;99.90;;;;;;5090791;28;20416;-74
2022/12/12 11:55:15;;;;;;;32.13;20.67;;;2.50;99.90;;;;;;5086716;28;20422;-74
2022/12/12 11:58:03;;;;;;;34.40;21.25;;;2.50;99.90;;;;;;5078072;28;20398;-74
2022/12/12 12:00:38;;;;;;;30.13;20.08;;;2.50;99.90;;;;;;5076629;28;20870;-74
2022/12/12 12:03:13;;;;;;;31.17;20.38;;;2.50;99.90;;;;;;5073672;28;20404;-74
2022/12/12 12:06:00;;;;;;;30.43;19.40;;;2.50;99.90;;;;;;5076894;28;20916;-74
2022/12/12 12:08:34;;;;;;;28.13;18.92;;;2.60;99.90;;;;;;5073369;28;20416;-74
2022/12/12 12:11:11;;;;;;;26.83;18.03;;;2.60;99.90;;;;;;5070591;28;20459;-74
2022/12/12 12:14:03;;;;;;;26.25;17.65;;;2.70;99.90;;;;;;5077177;28;20925;-74
2022/12/12 12:17:00;;;;;;;26.35;17.48;;;2.80;99.90;;;;;;5089389;28;20789;-74
2022/12/12 12:19:34;;;;;;;28.87;17.83;;;2.80;99.90;;;;;;5078474;28;20418;-74
2022/12/12 12:22:16;;;;;;;25.20;16.73;;;2.80;99.90;;;;;;5085468;28;20493;-74
2022/12/12 12:25:13;;;;;;;25.92;17.17;;;2.80;99.90;;;;;;5076735;28;20461;-74
2022/12/12 12:28:00;;;;;;;25.27;16.75;;;2.80;99.90;;;;;;5081379;28;21269;-74
2022/12/12 12:31:00;;;;;;;26.48;17.63;;;2.80;99.90;;;;;;5098612;28;20430;-74
2022/12/12 12:33:36;;;;;;;27.43;18.30;;;2.80;99.90;;;;;;5085059;28;20407;-74
2022/12/12 12:36:10;;;;;;;28.70;19.00;;;2.90;99.90;;;;;;5084322;28;20410;-74
2022/12/12 12:38:47;;;;;;;29.05;18.67;;;2.90;99.90;;;;;;5089908;28;20414;-74
2022/12/12 12:41:38;;;;;;;27.13;18.67;;;2.80;99.90;;;;;;5088877;28;20543;-74
2022/12/12 12:44:14;;;;;;;29.33;18.83;;;2.80;99.90;;;;;;5088925;28;20422;-74
2022/12/12 12:47:05;;;;;;;27.95;18.35;;;2.90;99.90;;;;;;5068359;28;20499;-74
2022/12/12 12:49:39;;;;;;;29.48;18.48;;;2.90;99.90;;;;;;5094074;28;20444;-74
2022/12/12 12:52:11;;;;;;;28.10;18.10;;;2.80;99.90;;;;;;5081493;28;20928;-74
2022/12/12 12:54:44;;;;;;;26.38;17.48;;;2.80;99.90;;;;;;5090126;28;20976;-74
2022/12/12 12:57:23;;;;;;;26.77;17.67;;;2.80;99.90;;;;;;5084796;28;20493;-74
2022/12/12 12:59:57;;;;;;;26.05;17.27;;;2.80;99.90;;;;;;5085218;28;20436;-74
2022/12/12 13:02:44;;;;;;;25.23;16.57;;;2.90;99.90;;;;;;5076145;28;20402;-74
2022/12/12 13:05:36;;;;;;;27.10;17.97;;;2.90;99.90;;;;;;5076324;28;20414;-74
2022/12/12 13:08:31;;;;;;;25.23;16.83;;;2.90;99.90;;;;;;5077755;28;20465;-74
2022/12/12 13:11:12;;;;;;;25.60;16.40;;;2.90;99.90;;;;;;5083599;28;20439;-74